Time;durP1;ratioP1;P1;durP2;ratioP2;P2;SDS_P1;SDS_P2;PMS_P1;PMS_P2;Temp;Humidity;BMP_temperature;BMP_pressure;BME280_temperature;BME280_humidity;BME280_pressure;Samples;Min_cycle;Max_cycle;Signal;HPM_P1;HPM_P2
2023/12/08 00:00:39;;;;;;;26.73;15.65;;;;;;;;;;6156350;23;20025;-86
2023/12/08 00:03:07;;;;;;;24.73;15.48;;;;;;;;;;6181608;23;20028;-86
2023/12/08 00:05:34;;;;;;;27.83;14.73;;;;;;;;;;6155037;23;20021;-86
2023/12/08 00:08:02;;;;;;;26.98;13.50;;;;;;;;;;6156296;23;20474;-86
2023/12/08 00:10:29;;;;;;;23.40;13.85;;;;;;;;;;6156321;23;20029;-87
2023/12/08 00:12:56;;;;;;;28.38;14.07;;;;;;;;;;6156206;23;20082;-86
2023/12/08 00:15:23;;;;;;;26.98;14.00;;;;;;;;;;6155679;23;20024;-87
2023/12/08 00:17:51;;;;;;;25.23;15.48;;;;;;;;;;6155955;23;20062;-87
2023/12/08 00:20:18;;;;;;;22.88;13.25;;;;;;;;;;6155493;23;20021;-87
2023/12/08 00:22:45;;;;;;;23.23;12.90;;;;;;;;;;6181760;23;20021;-87
2023/12/08 00:25:13;;;;;;;24.65;14.68;;;;;;;;;;6181428;23;20021;-87
2023/12/08 00:27:40;;;;;;;30.83;16.00;;;;;;;;;;6181902;23;20021;-87
2023/12/08 00:30:07;;;;;;;24.52;15.00;;;;;;;;;;6155948;23;20029;-87
2023/12/08 00:32:35;;;;;;;26.00;15.48;;;;;;;;;;6155957;23;20121;-87
2023/12/08 00:35:02;;;;;;;22.30;14.50;;;;;;;;;;6155443;23;20090;-87
2023/12/08 00:37:29;;;;;;;30.20;16.42;;;;;;;;;;6156392;23;20036;-87
2023/12/08 00:39:57;;;;;;;24.48;14.48;;;;;;;;;;6156286;23;20055;-87
2023/12/08 00:42:25;;;;;;;23.58;14.77;;;;;;;;;;6156047;23;20029;-87
2023/12/08 00:44:52;;;;;;;25.38;14.00;;;;;;;;;;6181010;23;20086;-88
2023/12/08 00:47:19;;;;;;;20.70;13.48;;;;;;;;;;6155835;23;20021;-87
2023/12/08 00:49:47;;;;;;;22.63;12.98;;;;;;;;;;6155864;23;20025;-87
2023/12/08 00:52:14;;;;;;;22.75;13.80;;;;;;;;;;6181681;23;20025;-88
2023/12/08 00:54:42;;;;;;;23.88;14.02;;;;;;;;;;6155909;23;20025;-87
2023/12/08 00:57:09;;;;;;;22.05;13.88;;;;;;;;;;6181563;23;20097;-87
2023/12/08 00:59:36;;;;;;;20.45;12.27;;;;;;;;;;6181136;23;20458;-87
2023/12/08 01:02:04;;;;;;;22.05;13.32;;;;;;;;;;6156493;23;20033;-87
2023/12/08 01:04:31;;;;;;;18.23;11.85;;;;;;;;;;6156136;23;20330;-88
2023/12/08 01:06:58;;;;;;;20.33;11.43;;;;;;;;;;6155997;23;20029;-87
2023/12/08 01:09:26;;;;;;;21.52;12.68;;;;;;;;;;6182023;23;20079;-87
2023/12/08 01:11:53;;;;;;;19.90;12.05;;;;;;;;;;6155002;23;20032;-87
2023/12/08 01:14:21;;;;;;;22.38;12.85;;;;;;;;;;6155748;23;20057;-87
2023/12/08 01:16:48;;;;;;;21.08;11.77;;;;;;;;;;6181605;23;20331;-87
2023/12/08 01:19:16;;;;;;;23.42;12.70;;;;;;;;;;6155848;23;20032;-88
2023/12/08 01:21:44;;;;;;;18.70;11.10;;;;;;;;;;6155267;23;20017;-88
2023/12/08 01:24:11;;;;;;;17.70;11.00;;;;;;;;;;6156189;23;20385;-88
2023/12/08 01:26:42;;;;;;;20.42;11.60;;;;;;;;;;6155489;23;20025;-88
2023/12/08 01:29:10;;;;;;;23.55;13.73;;;;;;;;;;6156127;23;20023;-88
2023/12/08 01:31:37;;;;;;;21.83;13.60;;;;;;;;;;6155714;23;20025;-87
2023/12/08 01:34:05;;;;;;;19.67;12.40;;;;;;;;;;6181748;23;20094;-88
2023/12/08 01:36:32;;;;;;;20.55;11.52;;;;;;;;;;6180980;23;20025;-88
2023/12/08 01:39:10;;;;;;;20.30;11.68;;;;;;;;;;6157903;23;20028;-88
2023/12/08 01:41:38;;;;;;;20.38;12.27;;;;;;;;;;6156188;23;20108;-87
2023/12/08 01:44:05;;;;;;;19.40;11.15;;;;;;;;;;6181099;23;20017;-87
2023/12/08 01:46:33;;;;;;;19.90;11.38;;;;;;;;;;6181603;23;20328;-87
2023/12/08 01:49:00;;;;;;;15.63;10.85;;;;;;;;;;6155626;23;20512;-87
2023/12/08 01:51:28;;;;;;;18.13;11.02;;;;;;;;;;6155920;23;20052;-88
2023/12/08 01:53:56;;;;;;;19.00;11.82;;;;;;;;;;6155223;23;20025;-88
2023/12/08 01:56:23;;;;;;;19.10;11.30;;;;;;;;;;6154635;23;20017;-87
2023/12/08 01:58:51;;;;;;;34.25;13.00;;;;;;;;;;6181436;23;20417;-88
2023/12/08 02:01:19;;;;;;;22.52;12.27;;;;;;;;;;6155629;23;20443;-88
2023/12/08 02:03:48;;;;;;;26.55;13.70;;;;;;;;;;6155753;23;20021;-88
2023/12/08 02:06:17;;;;;;;24.40;12.73;;;;;;;;;;6154649;23;20021;-88
2023/12/08 02:08:48;;;;;;;25.10;13.18;;;;;;;;;;6155923;23;20036;-88
2023/12/08 02:11:16;;;;;;;23.27;12.98;;;;;;;;;;6155477;23;20017;-88
2023/12/08 02:13:44;;;;;;;26.30;13.48;;;;;;;;;;6155846;23;20059;-88
2023/12/08 02:16:16;;;;;;;21.92;12.85;;;;;;;;;;6181160;23;20029;-87
2023/12/08 02:18:43;;;;;;;29.35;14.52;;;;;;;;;;6181126;23;20075;-88
2023/12/08 02:21:13;;;;;;;21.42;12.48;;;;;;;;;;6181214;23;20024;-88
2023/12/08 02:23:42;;;;;;;18.48;11.93;;;;;;;;;;6155725;23;20017;-87
2023/12/08 02:26:10;;;;;;;23.13;12.52;;;;;;;;;;6181269;23;20021;-88
2023/12/08 02:28:37;;;;;;;23.20;12.90;;;;;;;;;;6181159;23;20458;-87
2023/12/08 02:31:06;;;;;;;22.13;11.82;;;;;;;;;;6155630;23;20466;-87
2023/12/08 02:33:35;;;;;;;18.48;11.85;;;;;;;;;;6181204;23;20021;-88
2023/12/08 02:36:04;;;;;;;22.52;12.52;;;;;;;;;;6181019;23;20033;-86
2023/12/08 02:38:33;;;;;;;19.80;12.45;;;;;;;;;;6155845;23;20040;-88
2023/12/08 02:41:00;;;;;;;20.30;12.35;;;;;;;;;;6155631;23;20380;-88
2023/12/08 02:43:27;;;;;;;20.20;12.70;;;;;;;;;;6155195;23;20074;-88
2023/12/08 02:45:55;;;;;;;24.27;13.88;;;;;;;;;;6180167;23;20352;-87
2023/12/08 02:48:22;;;;;;;23.02;13.93;;;;;;;;;;6155261;23;20033;-88
2023/12/08 02:50:49;;;;;;;23.05;13.20;;;;;;;;;;6154837;23;20028;-88
2023/12/08 02:53:17;;;;;;;24.23;13.50;;;;;;;;;;6181142;23;20036;-88
2023/12/08 02:55:44;;;;;;;22.35;12.88;;;;;;;;;;6155198;23;20029;-88
2023/12/08 02:58:11;;;;;;;27.95;13.73;;;;;;;;;;6180876;23;20021;-88
2023/12/08 03:00:38;;;;;;;22.38;13.48;;;;;;;;;;6155542;23;20029;-88
2023/12/08 03:03:06;;;;;;;23.35;13.48;;;;;;;;;;6155031;23;20376;-87
2023/12/08 03:05:34;;;;;;;22.08;13.65;;;;;;;;;;6155443;23;20032;-88
2023/12/08 03:08:01;;;;;;;19.40;12.30;;;;;;;;;;6181175;23;20051;-87
2023/12/08 03:10:28;;;;;;;22.13;12.95;;;;;;;;;;6156794;23;20025;-88
2023/12/08 03:12:55;;;;;;;19.00;12.60;;;;;;;;;;6181786;23;20025;-88
2023/12/08 03:15:23;;;;;;;18.27;12.15;;;;;;;;;;6156306;23;20474;-88
2023/12/08 03:17:50;;;;;;;20.27;12.70;;;;;;;;;;6156763;23;20070;-87
2023/12/08 03:20:17;;;;;;;19.33;12.90;;;;;;;;;;6156604;23;20392;-88
2023/12/08 03:22:44;;;;;;;20.58;11.52;;;;;;;;;;6182559;23;20029;-88
2023/12/08 03:25:12;;;;;;;20.52;12.48;;;;;;;;;;6155902;23;20103;-87
2023/12/08 03:27:39;;;;;;;18.25;11.30;;;;;;;;;;6156564;23;20029;-88
2023/12/08 03:30:06;;;;;;;19.27;10.95;;;;;;;;;;6182463;23;20434;-88
2023/12/08 03:32:34;;;;;;;18.10;11.23;;;;;;;;;;6156557;23;20021;-88
2023/12/08 03:35:01;;;;;;;16.90;11.15;;;;;;;;;;6182513;23;20032;-88
2023/12/08 03:37:28;;;;;;;17.75;11.23;;;;;;;;;;6156612;23;20120;-88
2023/12/08 03:39:56;;;;;;;19.02;11.38;;;;;;;;;;6156193;23;20029;-87
2023/12/08 03:42:23;;;;;;;17.88;11.48;;;;;;;;;;6182123;23;20086;-88
2023/12/08 03:44:51;;;;;;;16.95;11.98;;;;;;;;;;6156201;23;20021;-88
2023/12/08 03:47:18;;;;;;;19.63;11.95;;;;;;;;;;6182372;23;20053;-88
2023/12/08 03:49:46;;;;;;;18.33;10.85;;;;;;;;;;6182095;23;20032;-88
2023/12/08 03:52:13;;;;;;;20.08;11.10;;;;;;;;;;6155674;23;20025;-88
2023/12/08 03:54:40;;;;;;;17.15;11.38;;;;;;;;;;6181298;23;20017;-88
2023/12/08 03:57:08;;;;;;;18.42;11.15;;;;;;;;;;6156267;23;20377;-88
2023/12/08 03:59:35;;;;;;;16.00;10.52;;;;;;;;;;6156015;23;20029;-88
2023/12/08 04:02:03;;;;;;;17.30;10.75;;;;;;;;;;6181711;23;20078;-88
2023/12/08 04:04:30;;;;;;;17.42;11.25;;;;;;;;;;6156196;23;20047;-88
2023/12/08 04:06:57;;;;;;;18.77;11.55;;;;;;;;;;6155988;23;20025;-87
2023/12/08 04:09:25;;;;;;;17.67;11.23;;;;;;;;;;6181506;23;20519;-88
2023/12/08 04:11:54;;;;;;;18.52;12.10;;;;;;;;;;6182174;23;20020;-88
2023/12/08 04:14:22;;;;;;;20.45;11.57;;;;;;;;;;6156276;23;20388;-88
2023/12/08 04:16:52;;;;;;;17.35;11.48;;;;;;;;;;6156147;23;20022;-88
2023/12/08 04:19:20;;;;;;;16.13;11.52;;;;;;;;;;6155990;23;20021;-88
2023/12/08 04:21:48;;;;;;;19.02;11.85;;;;;;;;;;6181620;23;20504;-88
2023/12/08 04:24:15;;;;;;;16.48;11.45;;;;;;;;;;6156245;23;20017;-88
2023/12/08 04:26:43;;;;;;;15.77;10.60;;;;;;;;;;6181425;23;20092;-88
2023/12/08 04:29:11;;;;;;;16.85;11.13;;;;;;;;;;6156332;23;20055;-88
2023/12/08 04:31:38;;;;;;;16.48;11.15;;;;;;;;;;6156590;23;20021;-88
2023/12/08 04:34:05;;;;;;;25.85;15.52;;;;;;;;;;6181456;23;20025;-88
2023/12/08 04:36:33;;;;;;;18.20;11.55;;;;;;;;;;6155832;23;20025;-88
2023/12/08 04:39:00;;;;;;;18.02;12.35;;;;;;;;;;6181492;23;20021;-88
2023/12/08 04:41:27;;;;;;;17.30;11.75;;;;;;;;;;6182347;23;20025;-88
2023/12/08 04:43:54;;;;;;;15.40;10.60;;;;;;;;;;6156429;23;20021;-88
2023/12/08 04:46:22;;;;;;;17.30;10.63;;;;;;;;;;6155735;23;20108;-88
2023/12/08 04:48:49;;;;;;;16.27;10.48;;;;;;;;;;6155728;23;20405;-88
2023/12/08 04:51:16;;;;;;;19.13;12.77;;;;;;;;;;6181995;23;20021;-88
2023/12/08 04:53:43;;;;;;;20.02;12.00;;;;;;;;;;6155784;23;20028;-88
2023/12/08 04:56:11;;;;;;;16.55;11.82;;;;;;;;;;6181626;23;20021;-88
2023/12/08 04:58:39;;;;;;;17.17;11.55;;;;;;;;;;6156187;23;20021;-88
2023/12/08 05:01:11;;;;;;;18.08;12.18;;;;;;;;;;6155290;23;20450;-88
2023/12/08 05:03:39;;;;;;;18.38;12.27;;;;;;;;;;6155652;23;20029;-87
2023/12/08 05:06:06;;;;;;;20.83;12.60;;;;;;;;;;6156307;23;20040;-88
2023/12/08 05:08:34;;;;;;;18.42;11.98;;;;;;;;;;6156599;23;20083;-88
2023/12/08 05:11:01;;;;;;;17.98;11.48;;;;;;;;;;6155962;23;20108;-88
2023/12/08 05:13:28;;;;;;;21.70;13.85;;;;;;;;;;6181492;23;20017;-88
2023/12/08 05:15:55;;;;;;;29.65;16.88;;;;;;;;;;6155522;23;20025;-88
2023/12/08 05:18:22;;;;;;;27.38;16.50;;;;;;;;;;6160640;23;20025;-88
2023/12/08 05:20:50;;;;;;;25.17;16.02;;;;;;;;;;6155654;23;20092;-88
2023/12/08 05:23:18;;;;;;;27.00;16.25;;;;;;;;;;6156237;23;20028;-88
2023/12/08 05:25:45;;;;;;;29.35;15.93;;;;;;;;;;6155225;23;20048;-88
2023/12/08 05:28:12;;;;;;;25.40;14.85;;;;;;;;;;6156056;23;20021;-88
2023/12/08 05:30:40;;;;;;;24.50;14.82;;;;;;;;;;6181311;23;20362;-88
2023/12/08 05:33:07;;;;;;;22.20;13.95;;;;;;;;;;6156163;23;20028;-88
2023/12/08 05:35:34;;;;;;;23.67;14.48;;;;;;;;;;6181851;23;20032;-88
2023/12/08 05:38:02;;;;;;;18.30;12.25;;;;;;;;;;6156336;23;20440;-88
2023/12/08 05:40:30;;;;;;;18.45;11.45;;;;;;;;;;6156284;23;20104;-88
2023/12/08 05:42:57;;;;;;;18.60;11.63;;;;;;;;;;6155675;23;20021;-87
2023/12/08 05:45:24;;;;;;;16.02;10.57;;;;;;;;;;6155539;23;20051;-88
2023/12/08 05:47:51;;;;;;;17.30;11.00;;;;;;;;;;6182063;23;20029;-87
2023/12/08 05:50:19;;;;;;;19.83;10.07;;;;;;;;;;6181911;23;20021;-88
2023/12/08 05:52:46;;;;;;;16.45;10.52;;;;;;;;;;6155797;23;20078;-88
2023/12/08 05:55:13;;;;;;;16.05;10.35;;;;;;;;;;6155594;23;20036;-88
2023/12/08 05:57:41;;;;;;;18.10;10.70;;;;;;;;;;6155493;23;20038;-88
2023/12/08 06:00:11;;;;;;;19.80;9.57;;;;;;;;;;6155966;23;20018;-88
2023/12/08 06:02:39;;;;;;;15.60;9.45;;;;;;;;;;6156021;23;20389;-87
2023/12/08 06:05:06;;;;;;;12.25;9.15;;;;;;;;;;6155532;23;20450;-88
2023/12/08 06:07:34;;;;;;;13.77;9.27;;;;;;;;;;6181755;23;20025;-88
2023/12/08 06:10:02;;;;;;;14.30;9.35;;;;;;;;;;6182434;23;20066;-88
2023/12/08 06:12:29;;;;;;;13.98;9.73;;;;;;;;;;6156074;23;20054;-88
2023/12/08 06:14:59;;;;;;;18.77;10.05;;;;;;;;;;6155618;23;20342;-88
2023/12/08 06:17:27;;;;;;;12.70;9.30;;;;;;;;;;6156078;23;20105;-88
2023/12/08 06:19:56;;;;;;;13.80;9.27;;;;;;;;;;6157037;23;20021;-87
2023/12/08 06:22:24;;;;;;;18.55;10.50;;;;;;;;;;6158150;23;20025;-88
2023/12/08 06:24:51;;;;;;;12.82;9.57;;;;;;;;;;6182130;23;20040;-87
2023/12/08 06:27:19;;;;;;;15.40;10.88;;;;;;;;;;6156311;23;20021;-88
2023/12/08 06:29:46;;;;;;;13.68;9.73;;;;;;;;;;6156214;23;20316;-88
2023/12/08 06:32:13;;;;;;;13.18;9.48;;;;;;;;;;6156638;23;20477;-88
2023/12/08 06:34:41;;;;;;;15.05;10.02;;;;;;;;;;6156098;23;20399;-88
2023/12/08 06:37:08;;;;;;;17.33;9.18;;;;;;;;;;6180904;23;20027;-88
2023/12/08 06:39:36;;;;;;;47.03;23.27;;;;;;;;;;6181884;23;20025;-87
2023/12/08 06:42:04;;;;;;;12.85;9.07;;;;;;;;;;6156080;23;20070;-88
2023/12/08 06:44:31;;;;;;;12.73;8.90;;;;;;;;;;6156147;23;20061;-88
2023/12/08 06:46:59;;;;;;;17.50;10.43;;;;;;;;;;6155646;23;20078;-88
2023/12/08 06:49:26;;;;;;;17.50;11.88;;;;;;;;;;6155671;23;20027;-88
2023/12/08 06:51:54;;;;;;;17.08;10.82;;;;;;;;;;6155661;23;20035;-88
2023/12/08 06:54:21;;;;;;;16.45;9.77;;;;;;;;;;6180952;23;20067;-88
2023/12/08 06:56:48;;;;;;;15.10;9.23;;;;;;;;;;6155479;23;20021;-88
2023/12/08 06:59:16;;;;;;;14.52;9.30;;;;;;;;;;6155727;23;20024;-88
2023/12/08 07:01:43;;;;;;;13.52;9.60;;;;;;;;;;6155524;23;20029;-87
2023/12/08 07:04:10;;;;;;;12.88;9.18;;;;;;;;;;6180884;23;20025;-87
2023/12/08 07:06:37;;;;;;;14.75;10.57;;;;;;;;;;6154878;23;20025;-87
2023/12/08 07:09:05;;;;;;;22.63;13.60;;;;;;;;;;6154960;23;20025;-87
2023/12/08 07:11:33;;;;;;;22.90;13.13;;;;;;;;;;6155177;23;20017;-87
2023/12/08 07:14:01;;;;;;;38.95;23.88;;;;;;;;;;6181109;23;20055;-87
2023/12/08 07:16:28;;;;;;;50.63;28.67;;;;;;;;;;6180833;23;20028;-87
2023/12/08 07:18:55;;;;;;;53.55;29.13;;;;;;;;;;6154752;23;20100;-87
2023/12/08 07:21:24;;;;;;;48.15;27.15;;;;;;;;;;6181395;23;20029;-87
2023/12/08 07:23:52;;;;;;;47.38;28.27;;;;;;;;;;6155143;23;20025;-87
2023/12/08 07:26:19;;;;;;;8.90;7.10;;;;;;;;;;6155168;23;20025;-87
2023/12/08 07:28:46;;;;;;;19.67;11.98;;;;;;;;;;6155079;23;20049;-87
2023/12/08 07:31:14;;;;;;;9.60;7.80;;;;;;;;;;6155062;23;20071;-86
2023/12/08 07:33:41;;;;;;;10.38;6.85;;;;;;;;;;6155284;23;20104;-86
2023/12/08 07:36:10;;;;;;;8.18;5.88;;;;;;;;;;6155104;23;20031;-87
2023/12/08 07:38:37;;;;;;;7.53;6.10;;;;;;;;;;6181160;23;20395;-87
2023/12/08 07:41:05;;;;;;;5.60;5.10;;;;;;;;;;6154595;23;20029;-87
2023/12/08 07:43:32;;;;;;;6.15;3.95;;;;;;;;;;6154490;23;20070;-86
2023/12/08 07:45:59;;;;;;;3.35;3.08;;;;;;;;;;6154004;23;20458;-86
2023/12/08 07:48:27;;;;;;;3.60;3.30;;;;;;;;;;6154557;23;20025;-86
2023/12/08 07:50:55;;;;;;;3.45;3.20;;;;;;;;;;6180388;23;20025;-85
2023/12/08 07:53:23;;;;;;;2.90;2.70;;;;;;;;;;6154192;23;20025;-86
2023/12/08 07:55:50;;;;;;;3.42;3.03;;;;;;;;;;6181319;23;20020;-84
2023/12/08 07:58:17;;;;;;;3.30;3.00;;;;;;;;;;6182141;23;20021;-85
2023/12/08 08:00:45;;;;;;;3.60;3.30;;;;;;;;;;6182026;23;20029;-84
2023/12/08 08:03:12;;;;;;;3.38;2.50;;;;;;;;;;6181923;23;20108;-84
2023/12/08 08:05:40;;;;;;;4.53;3.53;;;;;;;;;;6155747;23;20386;-84
2023/12/08 08:08:07;;;;;;;2.55;2.35;;;;;;;;;;6156142;23;20025;-84
2023/12/08 08:10:35;;;;;;;3.63;2.78;;;;;;;;;;6181831;23;20025;-85
2023/12/08 08:13:02;;;;;;;3.20;2.90;;;;;;;;;;6155422;23;20021;-84
2023/12/08 08:15:29;;;;;;;3.00;2.80;;;;;;;;;;6182752;23;20017;-86
2023/12/08 08:17:57;;;;;;;3.85;3.38;;;;;;;;;;6182767;23;20021;-85
2023/12/08 08:20:24;;;;;;;6.38;3.55;;;;;;;;;;6156009;23;20056;-86
2023/12/08 08:22:53;;;;;;;3.30;3.00;;;;;;;;;;6156504;23;20036;-86
2023/12/08 08:25:20;;;;;;;3.53;3.20;;;;;;;;;;6180956;23;20029;-86
2023/12/08 08:27:49;;;;;;;3.50;3.03;;;;;;;;;;6156114;23;20083;-86
2023/12/08 08:30:16;;;;;;;3.05;2.85;;;;;;;;;;6180563;23;20021;-85
2023/12/08 08:32:44;;;;;;;3.92;3.47;;;;;;;;;;6181882;23;20052;-86
2023/12/08 08:35:11;;;;;;;3.65;3.35;;;;;;;;;;6181563;23;20096;-85
2023/12/08 08:37:39;;;;;;;4.43;3.60;;;;;;;;;;6155985;23;20033;-85
2023/12/08 08:40:06;;;;;;;3.80;3.47;;;;;;;;;;6155500;23;20021;-86
2023/12/08 08:42:36;;;;;;;4.28;3.63;;;;;;;;;;6156188;23;20025;-86
2023/12/08 08:45:05;;;;;;;4.07;3.40;;;;;;;;;;6155592;23;20021;-86
2023/12/08 08:47:33;;;;;;;4.22;3.40;;;;;;;;;;6156246;23;20043;-86
2023/12/08 08:50:01;;;;;;;3.30;3.10;;;;;;;;;;6155907;23;20021;-87
2023/12/08 08:52:29;;;;;;;3.42;3.13;;;;;;;;;;6155826;23;20025;-86
2023/12/08 08:54:56;;;;;;;3.92;3.45;;;;;;;;;;6155593;23;20017;-86
2023/12/08 08:57:24;;;;;;;3.72;3.42;;;;;;;;;;6156217;23;20338;-86
2023/12/08 08:59:51;;;;;;;4.13;3.72;;;;;;;;;;6156096;23;20017;-86
2023/12/08 09:02:19;;;;;;;5.28;3.92;;;;;;;;;;6182157;23;20021;-86
2023/12/08 09:04:46;;;;;;;5.05;4.07;;;;;;;;;;6155910;23;20086;-85
2023/12/08 09:07:14;;;;;;;4.25;3.47;;;;;;;;;;6181537;23;20032;-86
2023/12/08 09:09:41;;;;;;;3.90;3.45;;;;;;;;;;6181325;23;20064;-84
2023/12/08 09:12:11;;;;;;;4.75;4.18;;;;;;;;;;6155820;23;20465;-85
2023/12/08 09:14:38;;;;;;;4.43;3.90;;;;;;;;;;6181479;23;20044;-86
2023/12/08 09:17:06;;;;;;;5.00;3.67;;;;;;;;;;6155347;23;20342;-85
2023/12/08 09:19:34;;;;;;;4.22;3.83;;;;;;;;;;6155710;23;20021;-87
2023/12/08 09:22:01;;;;;;;5.70;4.43;;;;;;;;;;6181689;23;20095;-85
2023/12/08 09:24:28;;;;;;;6.00;4.50;;;;;;;;;;6155647;23;20098;-85
2023/12/08 09:26:56;;;;;;;5.65;4.15;;;;;;;;;;6155409;23;20025;-86
2023/12/08 09:29:23;;;;;;;4.72;4.22;;;;;;;;;;6155752;23;20034;-85
2023/12/08 09:31:50;;;;;;;4.75;3.97;;;;;;;;;;6155095;23;20100;-85
2023/12/08 09:34:18;;;;;;;4.30;3.70;;;;;;;;;;6181335;23;20108;-86
2023/12/08 09:36:46;;;;;;;4.82;4.07;;;;;;;;;;6154999;23;20104;-86
2023/12/08 09:39:33;;;;;;;5.00;4.18;;;;;;;;;;6159736;23;20056;-85
2023/12/08 09:42:04;;;;;;;5.10;4.60;;;;;;;;;;6155527;23;20024;-84
2023/12/08 09:44:32;;;;;;;4.80;4.30;;;;;;;;;;6180762;23;20021;-85
2023/12/08 09:47:02;;;;;;;6.00;4.15;;;;;;;;;;6155383;23;20029;-85
2023/12/08 09:49:31;;;;;;;5.57;4.68;;;;;;;;;;6155626;23;20017;-86
2023/12/08 09:51:59;;;;;;;5.93;4.97;;;;;;;;;;6155520;23;20025;-83
2023/12/08 09:54:26;;;;;;;6.63;4.47;;;;;;;;;;6154818;23;20021;-86
2023/12/08 09:56:58;;;;;;;6.93;4.40;;;;;;;;;;6155833;23;20025;-85
2023/12/08 09:59:27;;;;;;;5.30;4.43;;;;;;;;;;6155199;23;20537;-84
2023/12/08 10:01:54;;;;;;;6.53;4.25;;;;;;;;;;6155500;23;20334;-86
2023/12/08 10:04:26;;;;;;;5.32;4.80;;;;;;;;;;6181543;23;20376;-85
2023/12/08 10:06:56;;;;;;;5.00;4.50;;;;;;;;;;6180734;23;20029;-85
2023/12/08 10:09:24;;;;;;;5.50;4.82;;;;;;;;;;6155428;23;20090;-86
2023/12/08 10:11:51;;;;;;;6.63;5.47;;;;;;;;;;6155488;23;20071;-85
2023/12/08 10:14:19;;;;;;;4.80;4.30;;;;;;;;;;6155475;23;20021;-85
2023/12/08 10:16:47;;;;;;;6.00;4.75;;;;;;;;;;6180773;23;20033;-86
2023/12/08 10:19:14;;;;;;;5.68;4.93;;;;;;;;;;6155486;23;20032;-86
2023/12/08 10:21:42;;;;;;;6.75;4.55;;;;;;;;;;6155354;23;20017;-86
2023/12/08 10:24:09;;;;;;;5.72;4.65;;;;;;;;;;6155323;23;20021;-86
2023/12/08 10:26:37;;;;;;;5.15;4.40;;;;;;;;;;6155155;23;20029;-86
2023/12/08 10:29:04;;;;;;;7.43;5.35;;;;;;;;;;6181412;23;20028;-85
2023/12/08 10:31:31;;;;;;;6.53;5.25;;;;;;;;;;6155050;23;20446;-86
2023/12/08 10:33:58;;;;;;;7.68;5.15;;;;;;;;;;6155551;23;20380;-86
2023/12/08 10:36:26;;;;;;;5.75;4.68;;;;;;;;;;6181209;23;20025;-86
2023/12/08 10:38:53;;;;;;;6.15;5.03;;;;;;;;;;6181227;23;20024;-86
2023/12/08 10:41:21;;;;;;;5.60;4.65;;;;;;;;;;6181513;23;20092;-87
2023/12/08 10:43:48;;;;;;;5.15;4.43;;;;;;;;;;6181182;23;20021;-87
2023/12/08 10:46:15;;;;;;;5.50;4.97;;;;;;;;;;6155188;23;20350;-86
2023/12/08 10:48:44;;;;;;;5.70;5.20;;;;;;;;;;6181185;23;20086;-86
2023/12/08 10:51:14;;;;;;;6.25;5.07;;;;;;;;;;6180801;23;20100;-85
2023/12/08 10:53:42;;;;;;;8.27;5.78;;;;;;;;;;6155077;23;20100;-86
2023/12/08 10:56:12;;;;;;;7.45;5.28;;;;;;;;;;6155114;23;20354;-86
2023/12/08 10:58:42;;;;;;;8.10;5.55;;;;;;;;;;6154781;23;20052;-86
2023/12/08 11:01:13;;;;;;;7.90;6.10;;;;;;;;;;6154710;23;20075;-87
2023/12/08 11:03:41;;;;;;;7.40;5.70;;;;;;;;;;6155280;23;20078;-86
2023/12/08 11:06:15;;;;;;;7.75;5.78;;;;;;;;;;6155915;23;20090;-86
2023/12/08 11:08:45;;;;;;;6.43;5.55;;;;;;;;;;6155342;23;20025;-85
2023/12/08 11:11:13;;;;;;;8.70;6.10;;;;;;;;;;6180454;23;20328;-86
2023/12/08 11:13:44;;;;;;;8.63;6.32;;;;;;;;;;6181211;23;20028;-86
2023/12/08 11:16:28;;;;;;;7.75;6.40;;;;;;;;;;6154677;23;20070;-86
2023/12/08 11:18:56;;;;;;;6.00;5.32;;;;;;;;;;6154857;23;20392;-86
2023/12/08 11:21:23;;;;;;;6.97;5.85;;;;;;;;;;6180870;23;20025;-86
2023/12/08 11:23:51;;;;;;;6.63;5.40;;;;;;;;;;6154765;23;20032;-86
2023/12/08 11:26:26;;;;;;;7.93;6.18;;;;;;;;;;6179669;23;20024;-86
2023/12/08 11:29:02;;;;;;;7.78;5.80;;;;;;;;;;6180600;23;20082;-86
2023/12/08 11:31:35;;;;;;;7.60;5.82;;;;;;;;;;6155925;23;20296;-86
2023/12/08 11:34:07;;;;;;;6.22;5.22;;;;;;;;;;6156241;23;20509;-85
2023/12/08 11:36:42;;;;;;;7.68;6.28;;;;;;;;;;6155845;23;20028;-86
2023/12/08 11:39:28;;;;;;;6.65;5.25;;;;;;;;;;6181181;23;20102;-86
2023/12/08 11:41:55;;;;;;;6.78;5.13;;;;;;;;;;6156063;23;20021;-86
2023/12/08 11:44:23;;;;;;;8.30;5.88;;;;;;;;;;6156201;23;20383;-85
2023/12/08 11:46:55;;;;;;;6.95;5.68;;;;;;;;;;6181846;23;20050;-85
2023/12/08 11:49:22;;;;;;;5.85;4.97;;;;;;;;;;6181996;23;20323;-86
2023/12/08 11:52:04;;;;;;;9.98;5.90;;;;;;;;;;6182012;23;20434;-86
2023/12/08 11:54:58;;;;;;;6.60;5.57;;;;;;;;;;6155923;23;20021;-86
2023/12/08 11:57:38;;;;;;;7.00;5.72;;;;;;;;;;6158088;23;20066;-86
2023/12/08 12:00:09;;;;;;;7.65;5.18;;;;;;;;;;6155633;23;20047;-86
2023/12/08 12:02:46;;;;;;;5.93;5.30;;;;;;;;;;6156468;23;20036;-86
2023/12/08 12:05:13;;;;;;;7.55;5.38;;;;;;;;;;6156085;23;20220;-86
2023/12/08 12:07:41;;;;;;;6.88;5.68;;;;;;;;;;6156081;23;20028;-86
2023/12/08 12:10:13;;;;;;;7.03;6.05;;;;;;;;;;6156321;23;20025;-86
2023/12/08 12:12:42;;;;;;;8.93;6.07;;;;;;;;;;6181999;23;20025;-86
2023/12/08 12:15:10;;;;;;;6.93;5.60;;;;;;;;;;6182008;23;20027;-86
2023/12/08 12:17:39;;;;;;;7.60;6.43;;;;;;;;;;6182053;23;20025;-86
2023/12/08 12:20:08;;;;;;;6.97;5.72;;;;;;;;;;6182244;23;20017;-86
2023/12/08 12:22:35;;;;;;;6.47;5.47;;;;;;;;;;6156041;23;20511;-86
2023/12/08 12:25:03;;;;;;;9.18;6.68;;;;;;;;;;6181738;23;20024;-86
2023/12/08 12:27:30;;;;;;;7.30;6.38;;;;;;;;;;6155919;23;20450;-86
2023/12/08 12:29:57;;;;;;;7.28;5.68;;;;;;;;;;6156545;23;20082;-87
2023/12/08 12:32:24;;;;;;;6.82;5.35;;;;;;;;;;6182152;23;20021;-87
2023/12/08 12:34:52;;;;;;;6.72;5.97;;;;;;;;;;6181510;23;20346;-86
2023/12/08 12:37:21;;;;;;;9.15;6.80;;;;;;;;;;6156460;23;20025;-86
2023/12/08 12:39:49;;;;;;;11.32;7.57;;;;;;;;;;6156184;23;20533;-87
2023/12/08 12:42:18;;;;;;;6.15;5.55;;;;;;;;;;6156614;23;20017;-86
2023/12/08 12:44:48;;;;;;;6.78;6.03;;;;;;;;;;6156321;23;20092;-86
2023/12/08 12:47:24;;;;;;;8.60;6.03;;;;;;;;;;6156302;23;20027;-86
2023/12/08 12:50:00;;;;;;;7.20;5.78;;;;;;;;;;6156168;23;20071;-86
2023/12/08 12:52:28;;;;;;;7.50;6.50;;;;;;;;;;6155852;23;20021;-86
2023/12/08 12:54:55;;;;;;;5.82;5.22;;;;;;;;;;6182459;23;20100;-86
2023/12/08 12:57:44;;;;;;;7.63;5.43;;;;;;;;;;6155420;23;20025;-85
2023/12/08 13:00:12;;;;;;;6.72;5.78;;;;;;;;;;6156480;23;20017;-87
2023/12/08 13:02:42;;;;;;;7.22;6.03;;;;;;;;;;6155797;23;20346;-86
2023/12/08 13:05:10;;;;;;;6.35;5.63;;;;;;;;;;6155827;23;20017;-86
2023/12/08 13:07:38;;;;;;;10.07;6.68;;;;;;;;;;6156344;23;20025;-86
2023/12/08 13:10:06;;;;;;;8.68;6.45;;;;;;;;;;6182115;23;20100;-86
2023/12/08 13:12:34;;;;;;;8.20;5.68;;;;;;;;;;6155834;23;20461;-85
2023/12/08 13:15:01;;;;;;;7.45;5.82;;;;;;;;;;6182143;23;20025;-86
2023/12/08 13:17:33;;;;;;;8.15;6.20;;;;;;;;;;6156891;23;20017;-86
2023/12/08 13:20:00;;;;;;;6.93;5.95;;;;;;;;;;6155711;23;20023;-86
2023/12/08 13:22:27;;;;;;;8.82;7.35;;;;;;;;;;6155499;23;20044;-85
2023/12/08 13:24:55;;;;;;;7.65;6.43;;;;;;;;;;6155727;23;20025;-86
2023/12/08 13:27:22;;;;;;;7.70;5.90;;;;;;;;;;6155696;23;20024;-86
2023/12/08 13:29:49;;;;;;;8.85;6.03;;;;;;;;;;6155957;23;20025;-86
2023/12/08 13:32:17;;;;;;;8.88;7.68;;;;;;;;;;6155904;23;20349;-85
2023/12/08 13:34:44;;;;;;;6.80;6.10;;;;;;;;;;6156028;23;20032;-85
2023/12/08 13:37:12;;;;;;;6.20;5.60;;;;;;;;;;6155429;23;20017;-85
2023/12/08 13:39:39;;;;;;;7.13;6.13;;;;;;;;;;6155377;23;20032;-85
2023/12/08 13:42:07;;;;;;;8.07;5.68;;;;;;;;;;6181630;23;20390;-85
2023/12/08 13:44:34;;;;;;;5.30;4.80;;;;;;;;;;6155491;23;20017;-85
2023/12/08 13:47:02;;;;;;;7.07;5.55;;;;;;;;;;6155723;23;20021;-85
2023/12/08 13:49:29;;;;;;;7.22;5.80;;;;;;;;;;6181749;23;20395;-85
2023/12/08 13:51:57;;;;;;;6.80;5.47;;;;;;;;;;6181095;23;20105;-86
2023/12/08 13:54:24;;;;;;;6.13;5.53;;;;;;;;;;6155336;23;20032;-86
2023/12/08 13:56:51;;;;;;;7.25;5.57;;;;;;;;;;6155462;23;20121;-85
2023/12/08 13:59:18;;;;;;;5.13;4.70;;;;;;;;;;6155723;23;20025;-85
2023/12/08 14:01:46;;;;;;;5.47;4.97;;;;;;;;;;6155459;23;20021;-84
2023/12/08 14:04:14;;;;;;;5.45;4.60;;;;;;;;;;6181201;23;20025;-85
2023/12/08 14:06:42;;;;;;;5.32;4.80;;;;;;;;;;6155139;23;20025;-85
2023/12/08 14:09:10;;;;;;;4.97;4.47;;;;;;;;;;6155631;23;20021;-85
2023/12/08 14:11:37;;;;;;;5.53;4.88;;;;;;;;;;6155257;23;20059;-86
2023/12/08 14:14:05;;;;;;;7.00;5.03;;;;;;;;;;6155163;23;20018;-86
2023/12/08 14:16:32;;;;;;;5.20;4.68;;;;;;;;;;6155369;23;20082;-85
2023/12/08 14:18:59;;;;;;;5.75;4.97;;;;;;;;;;6180883;23;20029;-86
2023/12/08 14:21:26;;;;;;;6.60;5.35;;;;;;;;;;6155307;23;20021;-86
2023/12/08 14:23:54;;;;;;;5.30;4.80;;;;;;;;;;6155543;23;20487;-85
2023/12/08 14:26:21;;;;;;;5.32;4.78;;;;;;;;;;6181464;23;20039;-86
2023/12/08 14:28:48;;;;;;;4.57;4.18;;;;;;;;;;6155426;23;20025;-86
2023/12/08 14:31:15;;;;;;;5.28;4.78;;;;;;;;;;6181497;23;20029;-86
2023/12/08 14:33:43;;;;;;;5.55;5.05;;;;;;;;;;6155221;23;20028;-86
2023/12/08 14:36:10;;;;;;;6.10;5.07;;;;;;;;;;6180608;23;20021;-86